createdAt,value
2019-05-10T00:01:00.532Z,99384.66
2019-05-10T00:02:22.945Z,99390.47
2019-05-10T00:03:44.691Z,99389.00
2019-05-10T00:05:06.932Z,99392.33
2019-05-10T00:06:29.083Z,99380.91
2019-05-10T00:07:51.072Z,99395.03
2019-05-10T00:08:54.667Z,99393.84
2019-05-10T00:09:58.071Z,99402.86
2019-05-10T00:11:06.563Z,99393.77
2019-05-10T00:12:13.985Z,99400.53
2019-05-10T00:13:22.400Z,99400.53
2019-05-10T00:14:28.208Z,99400.14
2019-05-10T00:15:33.883Z,99402.07
2019-05-10T00:16:38.234Z,99399.79
2019-05-10T00:17:42.539Z,99401.71
2019-05-10T00:18:46.952Z,99400.58
2019-05-10T00:19:51.259Z,99404.60
2019-05-10T00:20:55.607Z,99405.17
2019-05-10T00:21:59.775Z,99404.38
2019-05-10T00:23:04.400Z,99404.16
2019-05-10T00:24:08.660Z,99406.96
2019-05-10T00:25:14.105Z,99406.52
2019-05-10T00:26:18.263Z,99405.73
2019-05-10T00:27:22.615Z,99410.03
2019-05-10T00:28:26.851Z,99408.27
2019-05-10T00:29:32.172Z,99404.98
2019-05-10T00:30:36.361Z,99404.29
2019-05-10T00:31:40.781Z,99400.55
2019-05-10T00:32:44.943Z,99403.85
2019-05-10T00:33:49.316Z,99396.17
2019-05-10T00:34:53.488Z,99401.63
2019-05-10T00:35:57.831Z,99395.41
2019-05-10T00:37:02.000Z,99394.02
2019-05-10T00:38:06.355Z,99394.80
2019-05-10T00:39:10.557Z,99398.34
2019-05-10T00:40:14.971Z,99391.34
2019-05-10T00:41:19.136Z,99390.73
2019-05-10T00:42:23.483Z,99396.53
2019-05-10T00:43:27.652Z,99396.45
2019-05-10T00:44:33.010Z,99389.89
2019-05-10T00:45:37.171Z,99392.38
2019-05-10T00:46:41.520Z,99396.11
2019-05-10T00:47:45.688Z,99400.66
2019-05-10T00:48:50.039Z,99395.63
2019-05-10T00:49:54.397Z,99402.10
2019-05-10T00:50:58.745Z,99403.23
2019-05-10T00:52:02.937Z,99403.20
2019-05-10T00:53:07.274Z,99405.95
2019-05-10T00:54:11.446Z,99403.72
2019-05-10T00:55:19.077Z,99408.13
2019-05-10T00:56:21.677Z,99411.19
2019-05-10T00:57:26.023Z,99408.21
2019-05-10T00:58:30.193Z,99411.78
2019-05-10T00:59:34.564Z,99408.63
2019-05-10T01:00:38.747Z,99411.89
2019-05-10T01:01:43.354Z,99405.89
2019-05-10T01:02:47.515Z,99414.59
2019-05-10T01:03:51.866Z,99414.80
2019-05-10T01:04:56.031Z,99414.44
2019-05-10T01:06:00.431Z,99407.03
2019-05-10T01:07:04.606Z,99416.52
2019-05-10T01:08:08.955Z,99420.47
2019-05-10T01:09:13.490Z,99415.94
2019-05-10T01:10:17.837Z,99417.66
2019-05-10T01:11:22.035Z,99415.48
2019-05-10T01:12:26.386Z,99419.78
2019-05-10T01:13:30.553Z,99418.91
2019-05-10T01:14:34.898Z,99417.91
2019-05-10T01:15:39.064Z,99423.59
2019-05-10T01:16:43.438Z,99417.89
2019-05-10T01:17:47.605Z,99424.49
2019-05-10T01:18:51.963Z,99428.59
2019-05-10T01:19:56.481Z,99423.05
2019-05-10T01:21:00.888Z,99426.80
2019-05-10T01:22:05.055Z,99427.72
2019-05-10T01:23:09.404Z,99418.98
2019-05-10T01:24:13.612Z,99425.67
2019-05-10T01:25:33.677Z,99425.88
2019-05-10T01:26:24.009Z,99435.41
2019-05-10T01:27:28.357Z,99426.28
2019-05-10T01:28:32.524Z,99430.25
2019-05-10T01:29:36.876Z,99432.75
2019-05-10T01:30:41.577Z,99434.94
2019-05-10T01:31:46.161Z,99432.92
2019-05-10T01:32:50.481Z,99436.06
2019-05-10T01:33:54.866Z,99428.85
2019-05-10T01:34:59.068Z,99441.89
2019-05-10T01:36:03.415Z,99431.48
2019-05-10T01:37:07.607Z,99431.48
2019-05-10T01:38:12.233Z,99435.02
2019-05-10T01:39:16.396Z,99435.24
2019-05-10T01:40:20.759Z,99432.79
2019-05-10T01:41:24.924Z,99433.14
2019-05-10T01:42:29.329Z,99438.22
2019-05-10T01:43:33.642Z,99440.45
2019-05-10T01:44:38.079Z,99434.27
2019-05-10T01:45:42.743Z,99440.19
2019-05-10T01:46:47.158Z,99443.33
2019-05-10T01:47:51.402Z,99436.86
2019-05-10T01:48:55.751Z,99444.98
2019-05-10T01:49:59.947Z,99448.48
2019-05-10T01:51:04.720Z,99446.03
2019-05-10T01:52:08.962Z,99444.06
2019-05-10T01:53:13.312Z,99446.36
2019-05-10T01:54:17.532Z,99452.31
2019-05-10T01:55:21.907Z,99452.27
2019-05-10T01:56:26.074Z,99444.66
2019-05-10T01:57:30.422Z,99451.14
2019-05-10T01:58:34.598Z,99450.30
2019-05-10T01:59:38.979Z,99445.63
2019-05-10T02:00:43.438Z,99450.69
2019-05-10T02:01:48.797Z,99453.75
2019-05-10T02:02:53.036Z,99457.11
2019-05-10T02:03:57.399Z,99453.45
2019-05-10T02:05:01.588Z,99464.28
2019-05-10T02:06:06.040Z,99463.45
2019-05-10T02:07:10.194Z,99471.39
2019-05-10T02:08:14.544Z,99475.89
2019-05-10T02:09:18.762Z,99474.33
2019-05-10T02:10:23.640Z,99485.48
2019-05-10T02:11:27.871Z,99480.75
2019-05-10T02:12:32.224Z,99483.81
2019-05-10T02:13:36.391Z,99480.69
2019-05-10T02:14:40.923Z,99484.02
2019-05-10T02:15:45.129Z,99490.17
2019-05-10T02:16:49.487Z,99482.65
2019-05-10T02:17:53.656Z,99483.48
2019-05-10T02:18:58.007Z,99482.08
2019-05-10T02:20:02.233Z,99481.28
2019-05-10T02:21:06.847Z,99477.66
2019-05-10T02:22:11.127Z,99481.28
2019-05-10T02:23:15.482Z,99487.21
2019-05-10T02:24:19.650Z,99483.81
2019-05-10T02:25:24.000Z,99487.94
2019-05-10T02:26:28.216Z,99484.54
2019-05-10T02:27:32.592Z,99485.03
2019-05-10T02:28:36.774Z,99488.09
2019-05-10T02:29:41.206Z,99486.96
2019-05-10T02:30:45.385Z,99485.52
2019-05-10T02:31:50.978Z,99487.22
2019-05-10T02:32:55.146Z,99480.50
2019-05-10T02:33:59.496Z,99487.48
2019-05-10T02:35:06.437Z,99490.59
2019-05-10T02:36:10.868Z,99493.65
2019-05-10T02:37:15.447Z,99490.33
2019-05-10T02:38:19.783Z,99490.36
2019-05-10T02:39:24.020Z,99495.95
2019-05-10T02:40:28.428Z,99488.66
2019-05-10T02:41:32.589Z,99491.16
2019-05-10T02:42:37.129Z,99490.84
2019-05-10T02:43:41.294Z,99490.55
2019-05-10T02:44:45.745Z,99489.41
2019-05-10T02:45:49.913Z,99491.37
2019-05-10T02:46:54.271Z,99490.55
2019-05-10T02:47:58.468Z,99488.02
2019-05-10T02:49:02.843Z,99496.70
2019-05-10T02:50:07.186Z,99483.86
2019-05-10T02:51:11.524Z,99495.88
2019-05-10T02:52:15.690Z,99499.55
2019-05-10T02:53:20.061Z,99494.92
2019-05-10T02:54:24.264Z,99496.66
2019-05-10T02:55:28.613Z,99491.50
2019-05-10T02:56:32.789Z,99500.28
2019-05-10T02:57:37.576Z,99499.54
2019-05-10T02:58:42.786Z,99495.11
2019-05-10T02:59:47.163Z,99495.49
2019-05-10T03:00:51.391Z,99499.23
2019-05-10T03:01:57.160Z,99499.56
2019-05-10T03:03:01.436Z,99499.56
2019-05-10T03:04:05.818Z,99500.64
2019-05-10T03:05:10.243Z,99499.56
2019-05-10T03:06:15.975Z,99497.39
2019-05-10T03:07:20.165Z,99504.34
2019-05-10T03:08:24.528Z,99499.16
2019-05-10T03:09:28.866Z,99504.39
2019-05-10T03:10:33.210Z,99504.95
2019-05-10T03:11:46.307Z,99503.24
2019-05-10T03:12:50.671Z,99506.89
2019-05-10T03:13:55.522Z,99504.38
2019-05-10T03:14:59.971Z,99506.37
2019-05-10T03:16:04.420Z,99509.48
2019-05-10T03:17:08.914Z,99504.45
2019-05-10T03:18:13.088Z,99508.66
2019-05-10T03:19:19.197Z,99505.66
2019-05-10T03:20:23.340Z,99509.85
2019-05-10T03:21:27.698Z,99511.25
2019-05-10T03:22:33.585Z,99511.84
2019-05-10T03:23:38.013Z,99509.62
2019-05-10T03:24:42.213Z,99512.44
2019-05-10T03:25:46.643Z,99519.91
2019-05-10T03:26:51.672Z,99519.08
2019-05-10T03:27:57.341Z,99517.41
2019-05-10T03:29:01.523Z,99519.10
2019-05-10T03:30:05.990Z,99524.98
2019-05-10T03:31:10.240Z,99508.84
2019-05-10T03:32:14.665Z,99525.27
2019-05-10T03:33:18.968Z,99524.12
2019-05-10T03:34:23.325Z,99523.84
2019-05-10T03:35:27.518Z,99518.52
2019-05-10T03:36:32.900Z,99528.06
2019-05-10T03:37:37.080Z,99527.50
2019-05-10T03:38:41.628Z,99530.32
2019-05-10T03:39:45.797Z,99535.63
2019-05-10T03:40:50.986Z,99539.48
2019-05-10T03:41:55.159Z,99529.18
2019-05-10T03:42:59.507Z,99538.66
2019-05-10T03:44:04.343Z,99533.34
2019-05-10T03:45:08.669Z,99540.00
2019-05-10T03:46:12.930Z,99540.82
2019-05-10T03:47:17.294Z,99543.38
2019-05-10T03:48:21.463Z,99535.30
2019-05-10T03:49:25.819Z,99543.13
2019-05-10T03:50:29.980Z,99545.08
2019-05-10T03:51:34.449Z,99543.69
2019-05-10T03:52:38.617Z,99549.52
2019-05-10T03:53:43.422Z,99550.38
2019-05-10T03:54:47.589Z,99550.94
2019-05-10T03:55:52.447Z,99555.41
2019-05-10T03:57:11.847Z,99554.27
2019-05-10T03:58:02.732Z,99555.12
2019-05-10T03:59:06.945Z,99552.55
2019-05-10T04:00:12.681Z,99551.72
2019-05-10T04:01:16.865Z,99551.69
2019-05-10T04:02:21.251Z,99546.41
2019-05-10T04:03:25.414Z,99550.87
2019-05-10T04:04:29.923Z,99552.25
2019-05-10T04:05:34.112Z,99555.10
2019-05-10T04:06:38.479Z,99545.10
2019-05-10T04:07:42.663Z,99554.28
2019-05-10T04:08:47.020Z,99554.55
2019-05-10T04:09:51.197Z,99552.34
2019-05-10T04:10:56.268Z,99563.19
2019-05-10T04:12:00.436Z,99554.30
2019-05-10T04:13:04.878Z,99556.23
2019-05-10T04:14:09.049Z,99557.34
2019-05-10T04:15:13.733Z,99563.20
2019-05-10T04:16:17.894Z,99562.10
2019-05-10T04:17:22.252Z,99566.27
2019-05-10T04:18:26.421Z,99566.03
2019-05-10T04:19:30.778Z,99562.16
2019-05-10T04:20:34.945Z,99563.81
2019-05-10T04:21:39.320Z,99571.94
2019-05-10T04:22:43.484Z,99569.98
2019-05-10T04:23:47.891Z,99573.33
2019-05-10T04:24:52.125Z,99569.16
2019-05-10T04:25:56.526Z,99573.05
2019-05-10T04:27:00.684Z,99576.70
2019-05-10T04:28:05.112Z,99583.92
2019-05-10T04:29:10.241Z,99582.53
2019-05-10T04:30:14.658Z,99585.61
2019-05-10T04:31:18.873Z,99583.38
2019-05-10T04:32:23.254Z,99591.47
2019-05-10T04:33:27.417Z,99582.77
2019-05-10T04:34:31.766Z,99586.91
2019-05-10T04:35:35.950Z,99585.26
2019-05-10T04:36:40.400Z,99584.93
2019-05-10T04:37:45.048Z,99589.37
2019-05-10T04:38:49.392Z,99591.28
2019-05-10T04:39:53.563Z,99598.25
2019-05-10T04:40:57.918Z,99587.36
2019-05-10T04:42:02.158Z,99591.03
2019-05-10T04:43:06.533Z,99588.48
2019-05-10T04:44:11.151Z,99598.05
2019-05-10T04:45:15.591Z,99601.09
2019-05-10T04:46:19.776Z,99600.20
2019-05-10T04:47:24.129Z,99597.64
2019-05-10T04:48:28.405Z,99598.73
2019-05-10T04:49:32.817Z,99597.86
2019-05-10T04:50:37.020Z,99601.44
2019-05-10T04:51:41.368Z,99614.84
2019-05-10T04:52:45.548Z,99601.73
2019-05-10T04:53:49.924Z,99616.53
2019-05-10T04:54:54.163Z,99613.44
2019-05-10T04:55:58.560Z,99614.05
2019-05-10T04:57:02.885Z,99619.09
2019-05-10T04:58:07.227Z,99620.72
2019-05-10T04:59:11.432Z,99617.07
2019-05-10T05:00:15.855Z,99617.34
2019-05-10T05:01:20.023Z,99619.59
2019-05-10T05:02:24.497Z,99623.48
2019-05-10T05:03:28.680Z,99625.13
2019-05-10T05:04:33.124Z,99607.87
2019-05-10T05:05:37.385Z,99624.85
2019-05-10T05:06:41.737Z,99616.77
2019-05-10T05:07:47.000Z,99627.37
2019-05-10T05:08:51.359Z,99630.77
2019-05-10T05:09:55.527Z,99619.95
2019-05-10T05:10:59.879Z,99623.82
2019-05-10T05:12:05.038Z,99626.02
2019-05-10T05:13:09.407Z,99626.27
2019-05-10T05:14:13.571Z,99633.28
2019-05-10T05:15:17.928Z,99637.19
2019-05-10T05:16:22.153Z,99632.69
2019-05-10T05:17:26.543Z,99635.20
2019-05-10T05:18:30.743Z,99636.06
2019-05-10T05:19:35.222Z,99635.44
2019-05-10T05:20:39.378Z,99632.91
2019-05-10T05:21:43.742Z,99634.87
2019-05-10T05:22:47.950Z,99637.06
2019-05-10T05:23:52.338Z,99635.98
2019-05-10T05:25:01.076Z,99634.23
2019-05-10T05:26:02.555Z,99640.38
2019-05-10T05:27:06.725Z,99636.19
2019-05-10T05:28:11.087Z,99640.36
2019-05-10T05:29:15.743Z,99643.09
2019-05-10T05:30:20.181Z,99643.25
2019-05-10T05:31:24.363Z,99639.03
2019-05-10T05:32:28.706Z,99641.00
2019-05-10T05:33:32.883Z,99639.60
2019-05-10T05:34:37.266Z,99651.08
2019-05-10T05:35:41.534Z,99645.46
2019-05-10T05:36:45.868Z,99647.07
2019-05-10T05:37:50.033Z,99647.02
2019-05-10T05:38:54.389Z,99640.89
2019-05-10T05:39:58.592Z,99646.16
2019-05-10T05:41:02.941Z,99647.77
2019-05-10T05:42:07.151Z,99646.41
2019-05-10T05:43:11.463Z,99648.66
2019-05-10T05:44:20.327Z,99652.56
2019-05-10T05:45:22.108Z,99649.50
2019-05-10T05:46:26.289Z,99651.42
2019-05-10T05:47:30.640Z,99660.66
2019-05-10T05:48:40.544Z,99657.53
2019-05-10T05:49:40.861Z,99662.00
2019-05-10T05:50:45.068Z,99656.41
2019-05-10T05:51:49.422Z,99667.59
2019-05-10T05:52:53.629Z,99665.00
2019-05-10T05:53:57.997Z,99662.14
2019-05-10T05:55:02.141Z,99660.72
2019-05-10T05:56:12.586Z,99662.31
2019-05-10T05:57:12.391Z,99668.42
2019-05-10T05:58:26.505Z,99657.95
2019-05-10T05:59:26.052Z,99664.13
2019-05-10T06:00:30.673Z,99663.22
2019-05-10T06:01:34.563Z,99663.81
2019-05-10T06:02:43.964Z,99665.28
2019-05-10T06:03:45.057Z,99660.55
2019-05-10T06:04:49.538Z,99656.89
2019-05-10T06:05:53.710Z,99664.69
2019-05-10T06:06:59.045Z,99663.86
2019-05-10T06:08:04.595Z,99658.56
2019-05-10T06:09:09.007Z,99661.16
2019-05-10T06:10:17.193Z,99661.69
2019-05-10T06:11:19.458Z,99664.13
2019-05-10T06:12:23.629Z,99660.48
2019-05-10T06:13:30.081Z,99663.78
2019-05-10T06:14:34.315Z,99664.81
2019-05-10T06:15:38.949Z,99663.27
2019-05-10T06:16:45.153Z,99660.16
2019-05-10T06:17:56.754Z,99669.02
2019-05-10T06:18:55.082Z,99665.08
2019-05-10T06:20:03.622Z,99664.97
2019-05-10T06:21:05.335Z,99672.77
2019-05-10T06:22:09.688Z,99674.16
2019-05-10T06:23:13.860Z,99672.42
2019-05-10T06:24:18.212Z,99668.70
2019-05-10T06:25:38.104Z,99673.42
2019-05-10T06:26:28.943Z,99678.34
2019-05-10T06:27:35.426Z,99678.25
2019-05-10T06:29:45.031Z,99670.38
2019-05-10T06:30:49.489Z,99675.70
2019-05-10T06:31:53.652Z,99672.06
2019-05-10T06:33:00.760Z,99672.02
2019-05-10T06:34:04.236Z,99676.13
2019-05-10T06:35:14.162Z,99680.52
2019-05-10T06:36:14.483Z,99675.73
2019-05-10T06:37:18.854Z,99676.87
2019-05-10T06:38:23.024Z,99681.08
2019-05-10T06:39:27.362Z,99683.31
2019-05-10T06:40:39.413Z,99681.91
2019-05-10T06:41:37.610Z,99683.30
2019-05-10T06:42:42.030Z,99677.09
2019-05-10T06:43:51.244Z,99681.20
2019-05-10T06:44:52.251Z,99684.26
2019-05-10T06:45:56.601Z,99677.99
2019-05-10T06:47:02.114Z,99682.16
2019-05-10T06:48:06.883Z,99682.41
2019-05-10T06:49:11.143Z,99681.94
2019-05-10T06:50:15.510Z,99680.80
2019-05-10T06:51:19.722Z,99687.45
2019-05-10T06:52:27.665Z,99680.05
2019-05-10T06:53:30.132Z,99682.02
2019-05-10T06:54:34.484Z,99681.11
2019-05-10T06:55:38.733Z,99686.45
2019-05-10T06:56:43.087Z,99680.27
2019-05-10T06:57:50.524Z,99685.22
2019-05-10T06:58:53.475Z,99684.28
2019-05-10T07:00:06.219Z,99684.23
2019-05-10T07:01:04.457Z,99687.61
2019-05-10T07:02:08.627Z,99685.59
2019-05-10T07:03:13.084Z,99685.53
2019-05-10T07:04:17.305Z,99687.72
2019-05-10T07:05:21.701Z,99685.17
2019-05-10T07:06:25.917Z,99689.55
2019-05-10T07:07:43.117Z,99687.03
2019-05-10T07:08:43.758Z,99694.52
2019-05-10T07:10:48.130Z,99696.39
2019-05-10T07:11:52.597Z,99698.88
2019-05-10T07:13:02.958Z,99702.11
2019-05-10T07:14:02.795Z,99696.70
2019-05-10T07:15:07.416Z,99698.42
2019-05-10T07:16:14.954Z,99699.34
2019-05-10T07:17:17.691Z,99693.33
2019-05-10T07:18:24.109Z,99698.40
2019-05-10T07:19:28.832Z,99701.67
2019-05-10T07:20:33.432Z,99701.67
2019-05-10T07:21:39.097Z,99707.65
2019-05-10T07:22:43.806Z,99714.47
2019-05-10T07:23:47.925Z,99707.51
2019-05-10T07:24:57.046Z,99708.23
2019-05-10T07:25:58.164Z,99709.31
2019-05-10T07:27:05.545Z,99706.41
2019-05-10T07:28:09.702Z,99704.05
2019-05-10T07:29:29.171Z,99709.25
2019-05-10T07:30:26.284Z,99710.06
2019-05-10T07:31:30.746Z,99707.18
2019-05-10T07:32:35.930Z,99705.41
2019-05-10T07:33:40.374Z,99711.48
2019-05-10T07:34:48.783Z,99707.56
2019-05-10T07:35:50.634Z,99703.25
2019-05-10T07:36:54.779Z,99701.73
2019-05-10T07:37:59.135Z,99703.37
2019-05-10T07:39:08.414Z,99703.52
2019-05-10T07:40:11.665Z,99699.25
2019-05-10T07:41:19.339Z,99707.03
2019-05-10T07:42:22.089Z,99713.15
2019-05-10T07:43:28.863Z,99708.83
2019-05-10T07:44:32.398Z,99711.86
2019-05-10T07:45:36.567Z,99711.00
2019-05-10T07:46:46.559Z,99705.70
2019-05-10T07:47:46.982Z,99718.20
2019-05-10T07:48:53.821Z,99708.23
2019-05-10T07:49:57.295Z,99711.62
2019-05-10T07:51:01.645Z,99700.95
2019-05-10T07:52:05.826Z,99710.39
2019-05-10T07:53:10.205Z,99715.59
2019-05-10T07:54:15.483Z,99717.43
2019-05-10T07:55:27.435Z,99715.64
2019-05-10T07:56:26.788Z,99716.99
2019-05-10T07:57:31.183Z,99722.79
2019-05-10T07:58:38.118Z,99720.70
2019-05-10T07:59:50.292Z,99725.11
2019-05-10T08:00:47.591Z,99723.62
2019-05-10T08:01:51.990Z,99723.88
2019-05-10T08:03:07.493Z,99727.53
2019-05-10T08:04:02.239Z,99727.47
2019-05-10T08:05:10.925Z,99733.03
2019-05-10T08:06:15.312Z,99720.88
2019-05-10T08:07:18.667Z,99724.66
2019-05-10T08:08:23.072Z,99723.67
2019-05-10T08:09:31.489Z,99724.64
2019-05-10T08:10:33.287Z,99733.24
2019-05-10T08:11:39.097Z,99730.17
2019-05-10T08:12:45.551Z,99733.64
2019-05-10T08:13:49.443Z,99739.95
2019-05-10T08:14:54.772Z,99727.05
2019-05-10T08:15:59.488Z,99733.06
2019-05-10T08:17:06.288Z,99733.28
2019-05-10T08:18:10.014Z,99741.87
2019-05-10T08:19:14.305Z,99738.55
2019-05-10T08:20:33.407Z,99744.17
2019-05-10T08:21:26.512Z,99738.30
2019-05-10T08:22:40.193Z,99737.35
2019-05-10T08:23:37.463Z,99741.89
2019-05-10T08:24:46.416Z,99741.89
2019-05-10T08:25:47.736Z,99743.30
2019-05-10T08:26:55.500Z,99739.14
2019-05-10T08:28:02.639Z,99738.70
2019-05-10T08:29:07.765Z,99742.70
2019-05-10T08:30:22.548Z,99741.14
2019-05-10T08:31:17.499Z,99740.99
2019-05-10T08:32:25.480Z,99739.43
2019-05-10T08:33:29.109Z,99736.05
2019-05-10T08:34:35.665Z,99738.22
2019-05-10T08:35:43.400Z,99735.66
2019-05-10T08:36:47.584Z,99738.88
2019-05-10T08:37:53.000Z,99742.34
2019-05-10T08:39:07.019Z,99751.89
2019-05-10T08:40:03.774Z,99736.88
2019-05-10T08:41:14.879Z,99737.55
2019-05-10T08:42:32.639Z,99738.18
2019-05-10T08:43:21.790Z,99739.09
2019-05-10T08:44:26.183Z,99737.30
2019-05-10T08:45:32.457Z,99739.05
2019-05-10T08:46:41.206Z,99738.66
2019-05-10T08:47:42.855Z,99739.57
2019-05-10T08:48:51.372Z,99746.11
2019-05-10T08:50:10.749Z,99742.14
2019-05-10T08:51:05.645Z,99748.02
2019-05-10T08:52:05.288Z,99746.44
2019-05-10T08:53:11.074Z,99741.31
2019-05-10T08:54:15.498Z,99749.36
2019-05-10T08:55:19.931Z,99745.53
2019-05-10T08:56:24.433Z,99760.70
2019-05-10T08:57:28.671Z,99764.27
2019-05-10T08:58:37.149Z,99757.73
2019-05-10T08:59:38.910Z,99755.64
2019-05-10T09:00:54.403Z,99752.61
2019-05-10T09:01:50.806Z,99744.59
2019-05-10T09:02:55.508Z,99751.73
2019-05-10T09:04:04.389Z,99750.33
2019-05-10T09:05:05.995Z,99744.33
2019-05-10T09:06:14.209Z,99744.33
2019-05-10T09:07:16.531Z,99746.92
2019-05-10T09:08:24.790Z,99744.31
2019-05-10T09:09:26.790Z,99747.63
2019-05-10T09:10:32.377Z,99754.93
2019-05-10T09:11:37.098Z,99747.30
2019-05-10T09:12:50.661Z,99756.41
2019-05-10T09:13:47.395Z,99757.24
2019-05-10T09:14:57.445Z,99749.30
2019-05-10T09:15:57.672Z,99750.30
2019-05-10T09:17:04.310Z,99749.65
2019-05-10T09:18:08.022Z,99761.05
2019-05-10T09:19:12.497Z,99754.10
2019-05-10T09:20:25.528Z,99749.50
2019-05-10T09:21:23.235Z,99754.73
2019-05-10T09:22:34.060Z,99752.87
2019-05-10T09:23:33.484Z,99749.19
2019-05-10T09:24:43.244Z,99753.21
2019-05-10T09:25:43.695Z,99754.17
2019-05-10T09:26:52.761Z,99747.03
2019-05-10T09:27:53.941Z,99766.70
2019-05-10T09:28:58.289Z,99766.32
2019-05-10T09:30:03.067Z,99770.30
2019-05-10T09:31:18.639Z,99773.91
2019-05-10T09:32:14.444Z,99762.09
2019-05-10T09:33:22.256Z,99764.28
2019-05-10T09:34:27.191Z,99771.76
2019-05-10T09:35:32.997Z,99774.75
2019-05-10T09:36:37.211Z,99768.36
2019-05-10T09:37:42.171Z,99771.55
2019-05-10T09:38:46.522Z,99772.42
2019-05-10T09:39:54.927Z,99766.77
2019-05-10T09:40:57.851Z,99768.44
2019-05-10T09:42:08.026Z,99771.26
2019-05-10T09:43:09.747Z,99765.48
2019-05-10T09:44:14.216Z,99766.23
2019-05-10T09:45:18.376Z,99774.28
2019-05-10T09:46:22.994Z,99774.08
2019-05-10T09:47:27.497Z,99772.03
2019-05-10T09:48:33.258Z,99768.72
2019-05-10T09:49:37.591Z,99773.11
2019-05-10T09:50:46.735Z,99769.91
2019-05-10T09:51:47.976Z,99768.17
2019-05-10T09:52:52.377Z,99762.30
2019-05-10T09:53:57.656Z,99764.92
2019-05-10T09:55:03.940Z,99759.86
2019-05-10T09:56:08.470Z,99766.61
2019-05-10T09:57:12.833Z,99757.73
2019-05-10T09:58:21.789Z,99756.92
2019-05-10T09:59:23.076Z,99762.64
2019-05-10T10:00:37.700Z,99763.22
2019-05-10T10:01:40.732Z,99763.41
2019-05-10T10:02:47.740Z,99766.81
2019-05-10T10:03:51.040Z,99766.05
2019-05-10T10:04:58.578Z,99765.80
2019-05-10T10:06:07.402Z,99759.49
2019-05-10T10:07:07.146Z,99766.63
2019-05-10T10:08:11.569Z,99757.77
2019-05-10T10:09:17.197Z,99765.66
2019-05-10T10:10:29.265Z,99761.56
2019-05-10T10:11:27.904Z,99762.64
2019-05-10T10:12:32.263Z,99767.79
2019-05-10T10:13:43.085Z,99763.41
2019-05-10T10:14:43.265Z,99763.73
2019-05-10T10:15:51.941Z,99764.64
2019-05-10T10:16:58.370Z,99760.00
2019-05-10T10:17:59.527Z,99758.33
2019-05-10T10:19:03.879Z,99769.62
2019-05-10T10:20:08.642Z,99775.46
2019-05-10T10:21:13.396Z,99772.11
2019-05-10T10:22:19.838Z,99776.45
2019-05-10T10:23:29.494Z,99769.31
2019-05-10T10:24:30.331Z,99764.44
2019-05-10T10:25:39.872Z,99764.59
2019-05-10T10:26:40.750Z,99768.83
2019-05-10T10:27:45.126Z,99761.18
2019-05-10T10:28:54.509Z,99772.39
2019-05-10T10:29:57.341Z,99768.20
2019-05-10T10:31:05.290Z,99759.33
2019-05-10T10:32:08.025Z,99760.31
2019-05-10T10:33:17.805Z,99763.96
2019-05-10T10:34:19.279Z,99767.66
2019-05-10T10:35:27.752Z,99760.59
2019-05-10T10:36:29.486Z,99759.73
2019-05-10T10:37:33.676Z,99755.14
2019-05-10T10:38:45.486Z,99761.61
2019-05-10T10:39:43.886Z,99765.52
2019-05-10T10:40:48.232Z,99747.72
2019-05-10T10:41:52.535Z,99752.29
2019-05-10T10:42:57.754Z,99756.58
2019-05-10T10:44:02.089Z,99751.41
2019-05-10T10:45:07.659Z,99749.59
2019-05-10T10:46:12.711Z,99750.78
2019-05-10T10:47:17.975Z,99755.60
2019-05-10T10:48:22.284Z,99750.59
2019-05-10T10:49:28.059Z,99758.01
2019-05-10T10:50:32.492Z,99756.01
2019-05-10T10:51:37.916Z,99748.29
2019-05-10T10:52:42.185Z,99753.16
2019-05-10T10:53:47.063Z,99752.14
2019-05-10T10:54:51.309Z,99753.73
2019-05-10T10:56:02.470Z,99747.48
2019-05-10T10:57:01.518Z,99744.22
2019-05-10T10:58:07.435Z,99749.44
2019-05-10T10:59:11.799Z,99743.13
2019-05-10T11:00:23.225Z,99743.99
2019-05-10T11:01:25.565Z,99750.41
2019-05-10T11:02:33.567Z,99742.34
2019-05-10T11:03:35.943Z,99749.45
2019-05-10T11:04:46.393Z,99745.89
2019-05-10T11:05:46.526Z,99734.78
2019-05-10T11:06:50.877Z,99749.69
2019-05-10T11:07:55.038Z,99744.62
2019-05-10T11:09:01.609Z,99752.62
2019-05-10T11:10:15.428Z,99750.17
2019-05-10T11:11:13.075Z,99749.03
2019-05-10T11:12:22.488Z,99753.07
2019-05-10T11:13:40.651Z,99748.48
2019-05-10T11:14:34.013Z,99745.12
2019-05-10T11:15:36.479Z,99747.27
2019-05-10T11:16:41.440Z,99747.75
2019-05-10T11:17:45.886Z,99751.86
2019-05-10T11:18:51.927Z,99746.78
2019-05-10T11:19:56.131Z,99742.30
2019-05-10T11:21:02.027Z,99732.81
2019-05-10T11:22:09.472Z,99741.36
2019-05-10T11:23:16.200Z,99738.95
2019-05-10T11:24:22.383Z,99743.55
2019-05-10T11:25:25.815Z,99738.81
2019-05-10T11:26:32.948Z,99745.55
2019-05-10T11:27:36.032Z,99747.13
2019-05-10T11:28:44.163Z,99748.44
2019-05-10T11:29:46.246Z,99738.77
2019-05-10T11:30:51.717Z,99730.77
2019-05-10T11:32:12.331Z,99737.73
2019-05-10T11:33:01.941Z,99729.55
2019-05-10T11:34:06.404Z,99733.23
2019-05-10T11:35:11.787Z,99731.88
2019-05-10T11:36:16.798Z,99732.01
2019-05-10T11:37:31.008Z,99727.30
2019-05-10T11:38:27.039Z,99732.30
2019-05-10T11:39:32.949Z,99731.02
2019-05-10T11:40:37.451Z,99729.54
2019-05-10T11:41:41.899Z,99734.42
2019-05-10T11:42:47.626Z,99725.23
2019-05-10T11:43:52.267Z,99720.55
2019-05-10T11:44:56.426Z,99722.80
2019-05-10T11:46:00.784Z,99722.02
2019-05-10T11:47:20.130Z,99726.05
2019-05-10T11:48:11.046Z,99735.25
2019-05-10T11:49:15.211Z,99722.02
2019-05-10T11:50:28.809Z,99724.11
2019-05-10T11:51:25.433Z,99723.98
2019-05-10T11:52:34.716Z,99722.53
2019-05-10T11:53:35.760Z,99721.04
2019-05-10T11:54:41.698Z,99719.03
2019-05-10T11:55:46.061Z,99728.77
2019-05-10T11:56:52.221Z,99724.64
2019-05-10T11:58:03.221Z,99720.27
2019-05-10T11:59:02.850Z,99718.14
2019-05-10T12:01:19.296Z,99723.46
2019-05-10T12:02:37.013Z,99716.19
2019-05-10T12:03:26.720Z,99720.84
2019-05-10T12:04:38.981Z,99718.69
2019-05-10T12:05:37.048Z,99718.59
2019-05-10T12:06:50.015Z,99721.45
2019-05-10T12:07:47.296Z,99718.53
2019-05-10T12:10:08.330Z,99717.36
2019-05-10T12:11:12.380Z,99716.89
2019-05-10T12:12:12.253Z,99717.13
2019-05-10T12:14:22.020Z,99712.67
2019-05-10T12:15:26.205Z,99719.25
2019-05-10T12:16:33.364Z,99716.92
2019-05-10T12:17:36.526Z,99712.44
2019-05-10T12:18:46.543Z,99710.75
2019-05-10T12:19:50.585Z,99722.36
2019-05-10T12:22:03.570Z,99709.95
2019-05-10T12:23:13.261Z,99720.27
2019-05-10T12:24:32.786Z,99712.80
2019-05-10T12:25:37.925Z,99717.79
2019-05-10T12:26:05.331Z,99711.81
2019-05-10T12:26:15.763Z,99725.27
2019-05-10T12:26:18.523Z,99720.66
2019-05-10T12:26:27.898Z,99718.34
2019-05-10T12:27:44.094Z,99714.77
2019-05-10T12:28:36.743Z,99703.89
2019-05-10T12:29:41.118Z,99711.22
2019-05-10T12:30:45.329Z,99709.69
2019-05-10T12:31:53.358Z,99714.09
2019-05-10T12:32:58.111Z,99711.97
2019-05-10T12:34:08.930Z,99704.61
2019-05-10T12:35:07.501Z,99698.46
2019-05-10T12:36:22.242Z,99706.97
2019-05-10T12:37:20.140Z,99692.67
2019-05-10T12:38:29.616Z,99700.59
2019-05-10T12:39:30.948Z,99706.73
2019-05-10T12:40:35.462Z,99703.73
2019-05-10T12:41:45.060Z,99704.13
2019-05-10T12:42:47.074Z,99704.13
2019-05-10T12:43:51.901Z,99705.34
2019-05-10T12:44:57.291Z,99705.59
2019-05-10T12:46:01.507Z,99697.32
2019-05-10T12:47:05.913Z,99703.26